Time;durP1;ratioP1;P1;durP2;ratioP2;P2;SDS_P1;SDS_P2;PMS_P1;PMS_P2;Temp;Humidity;BMP_temperature;BMP_pressure;BME280_temperature;BME280_humidity;BME280_pressure;Samples;Min_cycle;Max_cycle;Signal;HPM_P1;HPM_P2
2021/09/11 00:02:09;;;;;;;18.80;11.43;;;;;;;;;;1891441;76;21042;-50
2021/09/11 00:04:39;;;;;;;15.20;10.28;;;;;;;;;;1891499;76;21143;-49
2021/09/11 00:07:08;;;;;;;18.50;10.95;;;;;;;;;;1891452;76;21062;-50
2021/09/11 00:09:36;;;;;;;21.30;12.68;;;;;;;;;;1891521;76;21035;-50
2021/09/11 00:12:06;;;;;;;19.50;11.10;;;;;;;;;;1891508;76;21104;-49
2021/09/11 00:14:36;;;;;;;29.02;13.28;;;;;;;;;;1891573;76;21014;-49
2021/09/11 00:17:05;;;;;;;39.10;12.50;;;;;;;;;;1891711;76;21070;-50
2021/09/11 00:19:34;;;;;;;20.40;9.90;;;;;;;;;;1891748;76;21030;-50
2021/09/11 00:22:03;;;;;;;17.57;9.98;;;;;;;;;;1891585;76;21030;-50
2021/09/11 00:24:31;;;;;;;18.45;10.60;;;;;;;;;;1891635;76;21051;-49
2021/09/11 00:27:00;;;;;;;21.10;11.12;;;;;;;;;;1891593;76;21108;-49
2021/09/11 00:29:29;;;;;;;14.23;9.93;;;;;;;;;;1891637;76;21096;-48
2021/09/11 00:31:58;;;;;;;14.40;9.50;;;;;;;;;;1891651;76;21089;-49
2021/09/11 00:34:27;;;;;;;15.48;10.20;;;;;;;;;;1891752;76;21014;-47
2021/09/11 00:36:56;;;;;;;15.55;10.35;;;;;;;;;;1891623;76;21026;-48
2021/09/11 00:39:25;;;;;;;17.10;10.60;;;;;;;;;;1891681;76;21018;-49
2021/09/11 00:41:55;;;;;;;19.15;10.85;;;;;;;;;;1891664;76;21116;-50
2021/09/11 00:44:24;;;;;;;17.87;10.65;;;;;;;;;;1891733;76;21026;-49
2021/09/11 00:46:53;;;;;;;18.65;10.45;;;;;;;;;;1891615;76;21042;-49
2021/09/11 00:49:21;;;;;;;16.25;10.20;;;;;;;;;;1891762;76;21096;-50
2021/09/11 00:51:50;;;;;;;20.12;10.68;;;;;;;;;;1891758;76;21038;-49
2021/09/11 00:54:19;;;;;;;19.60;10.40;;;;;;;;;;1891756;76;21159;-50
2021/09/11 00:56:50;;;;;;;24.72;12.43;;;;;;;;;;1891604;76;21093;-47
2021/09/11 00:59:18;;;;;;;18.17;10.32;;;;;;;;;;1891728;76;21637;-49
2021/09/11 01:01:47;;;;;;;22.40;11.05;;;;;;;;;;1891728;76;21026;-48
2021/09/11 01:04:16;;;;;;;20.08;9.83;;;;;;;;;;1891735;76;21073;-48
2021/09/11 01:06:45;;;;;;;23.55;9.78;;;;;;;;;;1891576;76;21109;-49
2021/09/11 01:09:14;;;;;;;22.90;10.63;;;;;;;;;;1891632;76;21034;-50
2021/09/11 01:11:43;;;;;;;17.90;9.95;;;;;;;;;;1891725;76;21042;-46
2021/09/11 01:14:12;;;;;;;18.00;10.90;;;;;;;;;;1891757;76;21105;-49
2021/09/11 01:16:41;;;;;;;19.55;9.95;;;;;;;;;;1891633;76;21097;-49
2021/09/11 01:19:10;;;;;;;17.85;9.65;;;;;;;;;;1891637;76;21042;-50
2021/09/11 01:21:40;;;;;;;15.70;9.98;;;;;;;;;;1891638;76;21085;-50
2021/09/11 01:24:09;;;;;;;18.85;10.00;;;;;;;;;;1891650;76;21042;-48
2021/09/11 01:26:37;;;;;;;14.43;9.25;;;;;;;;;;1891660;76;21100;-50
2021/09/11 01:29:10;;;;;;;15.18;9.15;;;;;;;;;;1891625;76;21054;-47
2021/09/11 01:31:39;;;;;;;15.83;9.55;;;;;;;;;;1891650;76;21073;-50
2021/09/11 01:34:08;;;;;;;15.90;9.50;;;;;;;;;;1891695;76;21007;-50
2021/09/11 01:36:36;;;;;;;18.15;10.18;;;;;;;;;;1891573;75;21042;-50
2021/09/11 01:39:05;;;;;;;16.00;9.00;;;;;;;;;;1891685;76;21056;-49
2021/09/11 01:41:34;;;;;;;19.87;9.73;;;;;;;;;;1891621;75;21113;-49
2021/09/11 01:44:03;;;;;;;15.50;8.83;;;;;;;;;;1891552;76;21034;-49
2021/09/11 01:46:32;;;;;;;20.45;10.43;;;;;;;;;;1891674;76;21096;-49
2021/09/11 01:49:01;;;;;;;19.27;8.93;;;;;;;;;;1891617;76;21101;-46
2021/09/11 01:51:30;;;;;;;15.75;8.88;;;;;;;;;;1891603;75;21042;-48
2021/09/11 01:53:58;;;;;;;15.68;9.38;;;;;;;;;;1891610;76;21081;-47
2021/09/11 01:56:27;;;;;;;15.32;8.90;;;;;;;;;;1891604;76;21014;-50
2021/09/11 01:58:56;;;;;;;17.57;8.90;;;;;;;;;;1891587;75;21038;-50
2021/09/11 02:01:25;;;;;;;19.15;9.13;;;;;;;;;;1891712;76;21554;-50
2021/09/11 02:03:54;;;;;;;17.23;8.60;;;;;;;;;;1891689;76;21111;-50
2021/09/11 02:06:23;;;;;;;15.23;9.70;;;;;;;;;;1891660;76;21100;-47
2021/09/11 02:08:52;;;;;;;21.27;8.85;;;;;;;;;;1891686;76;21022;-50
2021/09/11 02:11:20;;;;;;;13.65;8.20;;;;;;;;;;1891557;76;21104;-50
2021/09/11 02:13:49;;;;;;;16.93;8.43;;;;;;;;;;1891622;76;21042;-49
2021/09/11 02:16:18;;;;;;;16.45;9.00;;;;;;;;;;1891682;76;21022;-50
2021/09/11 02:18:46;;;;;;;20.10;8.63;;;;;;;;;;1891653;76;21010;-50
2021/09/11 02:21:15;;;;;;;19.67;11.30;;;;;;;;;;1891584;76;21167;-48
2021/09/11 02:23:44;;;;;;;18.70;8.73;;;;;;;;;;1891721;76;21038;-48
2021/09/11 02:26:13;;;;;;;13.08;8.08;;;;;;;;;;1891672;76;21042;-49
2021/09/11 02:28:43;;;;;;;18.35;8.13;;;;;;;;;;1891561;76;21042;-50
2021/09/11 02:31:12;;;;;;;14.85;8.75;;;;;;;;;;1891689;76;21077;-47
2021/09/11 02:33:42;;;;;;;17.50;8.73;;;;;;;;;;1891693;76;21050;-49
2021/09/11 02:36:10;;;;;;;19.07;8.50;;;;;;;;;;1891601;76;21003;-48
2021/09/11 02:38:39;;;;;;;18.10;8.78;;;;;;;;;;1891530;76;21092;-51
2021/09/11 02:41:08;;;;;;;13.75;8.58;;;;;;;;;;1891505;75;21092;-49
2021/09/11 02:43:37;;;;;;;18.50;8.83;;;;;;;;;;1891705;76;21034;-49
2021/09/11 02:46:05;;;;;;;23.32;8.75;;;;;;;;;;1891692;76;21038;-49
2021/09/11 02:48:34;;;;;;;16.65;8.75;;;;;;;;;;1891639;76;21112;-48
2021/09/11 02:51:03;;;;;;;25.02;9.63;;;;;;;;;;1891567;76;21108;-50
2021/09/11 02:53:32;;;;;;;19.80;8.40;;;;;;;;;;1891654;76;21108;-49
2021/09/11 02:56:00;;;;;;;15.63;8.15;;;;;;;;;;1891572;76;21100;-49
2021/09/11 02:58:29;;;;;;;20.10;9.85;;;;;;;;;;1891695;76;21049;-47
2021/09/11 03:00:58;;;;;;;14.23;8.18;;;;;;;;;;1891513;76;21101;-49
2021/09/11 03:03:27;;;;;;;18.48;8.10;;;;;;;;;;1891555;76;21082;-48
2021/09/11 03:05:55;;;;;;;17.40;8.30;;;;;;;;;;1891561;76;21054;-50
2021/09/11 03:08:24;;;;;;;13.80;8.05;;;;;;;;;;1891647;76;21014;-50
2021/09/11 03:10:53;;;;;;;14.85;8.23;;;;;;;;;;1891673;76;21034;-49
2021/09/11 03:13:22;;;;;;;16.77;8.23;;;;;;;;;;1891582;75;21038;-50
2021/09/11 03:15:51;;;;;;;15.83;8.58;;;;;;;;;;1891425;75;21039;-48
2021/09/11 03:18:20;;;;;;;17.37;8.90;;;;;;;;;;1891563;76;21112;-51
2021/09/11 03:20:48;;;;;;;15.85;8.08;;;;;;;;;;1891556;76;21077;-48
2021/09/11 03:23:17;;;;;;;15.63;8.43;;;;;;;;;;1891568;76;21034;-48
2021/09/11 03:25:46;;;;;;;17.98;9.75;;;;;;;;;;1891540;76;21007;-49
2021/09/11 03:28:15;;;;;;;25.15;8.60;;;;;;;;;;1891400;76;21061;-47
2021/09/11 03:30:44;;;;;;;13.85;8.30;;;;;;;;;;1891401;75;21002;-49
2021/09/11 03:33:13;;;;;;;13.80;8.05;;;;;;;;;;1891557;76;21034;-47
2021/09/11 03:35:41;;;;;;;12.98;7.70;;;;;;;;;;1891467;76;21100;-50
2021/09/11 03:38:10;;;;;;;16.17;8.23;;;;;;;;;;1891519;76;21092;-49
2021/09/11 03:40:39;;;;;;;13.75;7.67;;;;;;;;;;1891420;75;21078;-49
2021/09/11 03:43:08;;;;;;;12.73;8.15;;;;;;;;;;1878257;76;21185;-49
2021/09/11 03:45:37;;;;;;;15.50;8.08;;;;;;;;;;1872794;76;21097;-49
2021/09/11 03:48:06;;;;;;;16.10;8.13;;;;;;;;;;1872904;76;21102;-50
2021/09/11 03:50:34;;;;;;;17.05;7.53;;;;;;;;;;1873072;76;21043;-47
2021/09/11 03:53:03;;;;;;;22.93;8.83;;;;;;;;;;1872921;76;21039;-49
2021/09/11 03:55:32;;;;;;;17.87;8.43;;;;;;;;;;1872885;76;21035;-50
2021/09/11 03:58:01;;;;;;;17.77;7.90;;;;;;;;;;1872992;75;21046;-48
2021/09/11 04:00:30;;;;;;;20.05;8.80;;;;;;;;;;1873024;77;21039;-49
2021/09/11 04:02:58;;;;;;;14.75;7.78;;;;;;;;;;1872936;77;21015;-50
2021/09/11 04:05:27;;;;;;;16.45;8.20;;;;;;;;;;1873046;76;21015;-48
2021/09/11 04:07:56;;;;;;;17.52;8.25;;;;;;;;;;1872905;76;21109;-49
2021/09/11 04:10:25;;;;;;;18.23;8.88;;;;;;;;;;1872907;77;21131;-49
2021/09/11 04:12:54;;;;;;;19.62;9.35;;;;;;;;;;1872947;77;21105;-50
2021/09/11 04:15:23;;;;;;;18.82;8.70;;;;;;;;;;1872881;76;21105;-47
2021/09/11 04:17:52;;;;;;;13.83;8.33;;;;;;;;;;1872898;75;21105;-49
2021/09/11 04:20:21;;;;;;;42.15;11.83;;;;;;;;;;1872826;77;21148;-49
2021/09/11 04:22:50;;;;;;;18.02;7.95;;;;;;;;;;1872788;76;21105;-47
2021/09/11 04:25:18;;;;;;;16.93;8.35;;;;;;;;;;1872819;76;21078;-49
2021/09/11 04:27:47;;;;;;;20.48;8.83;;;;;;;;;;1872796;77;21110;-49
2021/09/11 04:30:16;;;;;;;19.57;8.20;;;;;;;;;;1872873;77;21038;-50
2021/09/11 04:32:45;;;;;;;14.38;7.58;;;;;;;;;;1872882;77;21047;-50
2021/09/11 04:35:14;;;;;;;17.52;8.53;;;;;;;;;;1872758;77;21212;-47
2021/09/11 04:37:43;;;;;;;42.27;22.85;;;;;;;;;;1872761;76;21096;-48
2021/09/11 04:40:12;;;;;;;52.43;25.43;;;;;;;;;;1872736;76;21019;-51
2021/09/11 04:42:41;;;;;;;39.25;23.40;;;;;;;;;;1872759;76;21039;-49
2021/09/11 04:45:10;;;;;;;46.83;21.95;;;;;;;;;;1872841;77;21136;-51
2021/09/11 04:47:39;;;;;;;36.90;20.02;;;;;;;;;;1872826;76;21003;-50
2021/09/11 04:50:08;;;;;;;39.65;20.72;;;;;;;;;;1872862;77;21031;-51
2021/09/11 04:52:37;;;;;;;30.72;17.23;;;;;;;;;;1872769;75;21043;-52
2021/09/11 04:55:07;;;;;;;27.13;15.23;;;;;;;;;;1872765;75;21038;-51
2021/09/11 04:57:36;;;;;;;26.27;14.10;;;;;;;;;;1873013;77;21027;-51
2021/09/11 05:00:05;;;;;;;25.75;11.38;;;;;;;;;;1872679;75;21035;-51
2021/09/11 05:02:34;;;;;;;25.60;12.05;;;;;;;;;;1872785;77;21043;-51
2021/09/11 05:05:03;;;;;;;17.48;10.85;;;;;;;;;;1872691;75;21043;-50
2021/09/11 05:07:32;;;;;;;18.20;9.43;;;;;;;;;;1872838;76;21039;-51
2021/09/11 05:10:00;;;;;;;17.48;9.60;;;;;;;;;;1872844;77;21039;-49
2021/09/11 05:12:29;;;;;;;17.20;9.45;;;;;;;;;;1872711;77;21086;-52
2021/09/11 05:14:58;;;;;;;15.53;8.50;;;;;;;;;;1872752;77;21125;-51
2021/09/11 05:17:27;;;;;;;12.63;8.15;;;;;;;;;;1872800;76;21039;-51
2021/09/11 05:19:56;;;;;;;15.58;8.10;;;;;;;;;;1872861;77;21039;-48
2021/09/11 05:22:25;;;;;;;15.08;8.10;;;;;;;;;;1872734;77;21035;-51
2021/09/11 05:24:54;;;;;;;15.08;8.40;;;;;;;;;;1872689;76;21109;-48
2021/09/11 05:27:22;;;;;;;12.98;8.25;;;;;;;;;;1872683;77;21047;-50
2021/09/11 05:29:51;;;;;;;15.70;9.23;;;;;;;;;;1872584;76;21114;-50
2021/09/11 05:32:20;;;;;;;16.90;9.50;;;;;;;;;;1872665;77;21023;-48
2021/09/11 05:34:49;;;;;;;25.35;10.15;;;;;;;;;;1872643;76;21019;-50
2021/09/11 05:37:18;;;;;;;25.72;11.05;;;;;;;;;;1872743;77;21027;-51
2021/09/11 05:39:46;;;;;;;16.80;9.58;;;;;;;;;;1872768;77;21122;-51
2021/09/11 05:42:17;;;;;;;21.55;11.18;;;;;;;;;;1872844;75;21039;-50
2021/09/11 05:44:45;;;;;;;24.70;11.03;;;;;;;;;;1872760;76;21060;-50
2021/09/11 05:47:15;;;;;;;21.90;10.58;;;;;;;;;;1872825;76;21118;-51
2021/09/11 05:49:43;;;;;;;20.85;11.45;;;;;;;;;;1872842;77;21039;-50
2021/09/11 05:52:13;;;;;;;18.80;9.63;;;;;;;;;;1872705;77;21043;-51
2021/09/11 05:54:41;;;;;;;20.05;10.20;;;;;;;;;;1872956;77;21031;-51
2021/09/11 05:57:10;;;;;;;19.23;10.08;;;;;;;;;;1872763;77;21055;-50
2021/09/11 05:59:39;;;;;;;19.70;10.05;;;;;;;;;;1872890;77;21035;-48
2021/09/11 06:02:08;;;;;;;18.55;10.23;;;;;;;;;;1872768;77;21101;-48
2021/09/11 06:04:36;;;;;;;24.95;9.63;;;;;;;;;;1872797;77;21112;-50
2021/09/11 06:07:05;;;;;;;19.87;10.40;;;;;;;;;;1872827;75;21037;-50
2021/09/11 06:09:34;;;;;;;18.80;9.48;;;;;;;;;;1872746;77;21015;-51
2021/09/11 06:12:05;;;;;;;22.45;9.45;;;;;;;;;;1872814;76;21015;-49
2021/09/11 06:14:33;;;;;;;18.60;10.65;;;;;;;;;;1872924;76;21052;-50
2021/09/11 06:17:02;;;;;;;19.92;10.70;;;;;;;;;;1872613;77;21043;-50
2021/09/11 06:19:32;;;;;;;21.05;10.15;;;;;;;;;;1872748;77;21055;-51
2021/09/11 06:22:01;;;;;;;20.70;10.95;;;;;;;;;;1872724;77;21019;-49
2021/09/11 06:24:30;;;;;;;16.55;10.40;;;;;;;;;;1872825;77;21051;-50
2021/09/11 06:26:58;;;;;;;23.73;11.73;;;;;;;;;;1872782;77;21003;-52
2021/09/11 06:29:27;;;;;;;32.58;19.20;;;;;;;;;;1872833;77;21039;-51
2021/09/11 06:31:56;;;;;;;35.35;22.20;;;;;;;;;;1872659;75;21102;-50
2021/09/11 06:34:25;;;;;;;35.75;22.48;;;;;;;;;;1872857;77;21140;-50
2021/09/11 06:36:54;;;;;;;42.35;22.32;;;;;;;;;;1872786;77;21051;-51
2021/09/11 06:39:23;;;;;;;37.78;21.55;;;;;;;;;;1872687;77;21097;-50
2021/09/11 06:41:52;;;;;;;38.25;20.62;;;;;;;;;;1872623;77;21031;-50
2021/09/11 06:44:20;;;;;;;34.83;19.70;;;;;;;;;;1885394;76;21109;-49
2021/09/11 06:46:49;;;;;;;29.77;17.95;;;;;;;;;;1891388;76;21038;-50
2021/09/11 06:49:18;;;;;;;35.78;17.95;;;;;;;;;;1891402;76;21038;-50
2021/09/11 06:51:47;;;;;;;30.82;17.27;;;;;;;;;;1891526;75;21112;-49
2021/09/11 06:54:16;;;;;;;26.17;13.90;;;;;;;;;;1891398;76;21038;-50
2021/09/11 06:56:45;;;;;;;37.50;15.53;;;;;;;;;;1891483;76;21096;-50
2021/09/11 06:59:14;;;;;;;19.42;12.33;;;;;;;;;;1891481;76;21015;-50
2021/09/11 07:01:42;;;;;;;21.62;12.40;;;;;;;;;;1891456;76;21116;-51
2021/09/11 07:04:11;;;;;;;33.18;15.48;;;;;;;;;;1891361;76;21038;-51
2021/09/11 07:06:40;;;;;;;29.80;15.20;;;;;;;;;;1891316;76;21082;-50
2021/09/11 07:09:09;;;;;;;32.93;16.30;;;;;;;;;;1891307;76;21042;-51
2021/09/11 07:11:38;;;;;;;30.30;15.03;;;;;;;;;;1891338;76;21042;-50
2021/09/11 07:14:06;;;;;;;54.35;22.35;;;;;;;;;;1891486;76;21042;-50
2021/09/11 07:16:35;;;;;;;35.30;16.67;;;;;;;;;;1891363;76;21089;-51
2021/09/11 07:19:04;;;;;;;25.92;13.30;;;;;;;;;;1891350;76;21035;-50
2021/09/11 07:21:32;;;;;;;29.57;13.40;;;;;;;;;;1891434;76;21026;-50
2021/09/11 07:24:02;;;;;;;29.67;14.95;;;;;;;;;;1891313;76;21058;-50
2021/09/11 07:26:30;;;;;;;36.13;17.75;;;;;;;;;;1891309;76;21139;-51
2021/09/11 07:28:59;;;;;;;42.38;17.20;;;;;;;;;;1891439;76;21046;-51
2021/09/11 07:31:28;;;;;;;34.08;16.32;;;;;;;;;;1891653;76;21082;-50
2021/09/11 07:33:57;;;;;;;23.83;13.18;;;;;;;;;;1891393;76;21039;-48
2021/09/11 07:36:26;;;;;;;21.33;12.43;;;;;;;;;;1891349;76;21112;-49
2021/09/11 07:38:55;;;;;;;26.50;15.15;;;;;;;;;;1891357;76;21093;-47
2021/09/11 07:41:24;;;;;;;25.10;13.70;;;;;;;;;;1891366;76;21049;-51
2021/09/11 07:43:53;;;;;;;51.55;16.70;;;;;;;;;;1885896;76;21067;-50
2021/09/11 07:46:21;;;;;;;28.07;17.35;;;;;;;;;;1872722;77;21093;-50
2021/09/11 07:48:50;;;;;;;29.00;15.93;;;;;;;;;;1872900;77;21141;-51
2021/09/11 07:51:19;;;;;;;25.35;13.95;;;;;;;;;;1872587;77;21043;-47
2021/09/11 07:53:48;;;;;;;27.35;12.37;;;;;;;;;;1872643;77;21043;-48
2021/09/11 07:56:19;;;;;;;23.18;12.28;;;;;;;;;;1872642;77;21055;-46
2021/09/11 07:58:47;;;;;;;28.87;12.25;;;;;;;;;;1872639;77;21477;-51
2021/09/11 08:01:16;;;;;;;17.75;9.75;;;;;;;;;;1872716;77;21003;-50
2021/09/11 08:03:45;;;;;;;19.10;10.00;;;;;;;;;;1872742;76;21023;-50
2021/09/11 08:06:14;;;;;;;20.60;11.08;;;;;;;;;;1872664;75;21039;-50
2021/09/11 08:08:43;;;;;;;17.55;10.08;;;;;;;;;;1872742;77;21090;-49
2021/09/11 08:11:11;;;;;;;16.67;7.95;;;;;;;;;;1871767;76;21043;-50
2021/09/11 08:13:40;;;;;;;20.08;9.45;;;;;;;;;;1878120;75;21154;-47
2021/09/11 08:16:09;;;;;;;21.45;11.75;;;;;;;;;;1885871;75;20992;-50
2021/09/11 08:18:38;;;;;;;11.63;7.67;;;;;;;;;;1887738;75;20993;-50
2021/09/11 08:21:06;;;;;;;13.40;8.30;;;;;;;;;;1904951;75;21086;-50
2021/09/11 08:23:35;;;;;;;28.35;12.15;;;;;;;;;;1893817;75;21086;-48
2021/09/11 08:26:06;;;;;;;21.85;11.48;;;;;;;;;;1872441;77;21017;-51
2021/09/11 08:28:34;;;;;;;37.93;19.48;;;;;;;;;;1872339;75;21099;-51
2021/09/11 08:31:03;;;;;;;45.80;21.25;;;;;;;;;;1872440;77;21044;-49
2021/09/11 08:33:32;;;;;;;33.15;15.63;;;;;;;;;;1872994;75;21093;-49
2021/09/11 08:36:01;;;;;;;18.85;11.60;;;;;;;;;;1872635;76;21071;-50
2021/09/11 08:38:34;;;;;;;28.20;16.17;;;;;;;;;;1872553;77;21321;-47
2021/09/11 08:41:03;;;;;;;20.85;12.23;;;;;;;;;;1885523;75;21890;-48
2021/09/11 08:43:30;;;;;;;25.48;14.40;;;;;;;;;;1889142;75;21561;-50
2021/09/11 08:45:58;;;;;;;26.62;15.78;;;;;;;;;;1896299;75;21110;-45
2021/09/11 08:48:27;;;;;;;24.10;13.25;;;;;;;;;;1900671;75;21025;-49
2021/09/11 08:50:57;;;;;;;28.67;13.83;;;;;;;;;;1896741;74;21152;-48
2021/09/11 08:53:25;;;;;;;20.55;12.00;;;;;;;;;;1908686;75;21031;-51
2021/09/11 08:55:54;;;;;;;21.35;12.25;;;;;;;;;;1914451;75;21028;-49
2021/09/11 08:58:23;;;;;;;24.47;10.85;;;;;;;;;;1914827;75;21077;-50
2021/09/11 09:00:53;;;;;;;24.92;9.58;;;;;;;;;;1909831;75;21048;-48
2021/09/11 09:03:34;;;;;;;17.15;11.00;;;;;;;;;;1895782;75;21024;-49
2021/09/11 09:06:12;;;;;;;21.40;9.63;;;;;;;;;;1899436;75;21011;-50
2021/09/11 09:08:41;;;;;;;18.57;8.90;;;;;;;;;;1897042;75;21145;-49
2021/09/11 09:11:17;;;;;;;18.90;9.70;;;;;;;;;;1895549;75;21086;-48
2021/09/11 09:13:50;;;;;;;18.40;9.53;;;;;;;;;;1894098;75;21015;-48
2021/09/11 09:16:19;;;;;;;13.85;8.73;;;;;;;;;;1899202;75;20979;-49
2021/09/11 09:18:48;;;;;;;13.58;7.95;;;;;;;;;;1894608;75;21040;-46
2021/09/11 09:21:21;;;;;;;9.13;6.17;;;;;;;;;;1882065;76;21040;-47
2021/09/11 09:23:51;;;;;;;16.12;7.17;;;;;;;;;;1881480;76;21076;-46
2021/09/11 09:26:20;;;;;;;13.18;8.58;;;;;;;;;;1881370;75;21092;-47
2021/09/11 09:29:05;;;;;;;14.47;7.40;;;;;;;;;;1881914;75;21024;-48
2021/09/11 09:31:35;;;;;;;14.40;7.85;;;;;;;;;;1881651;76;21075;-45
2021/09/11 09:34:04;;;;;;;14.85;8.95;;;;;;;;;;1881953;76;21032;-47
2021/09/11 09:36:37;;;;;;;18.70;9.10;;;;;;;;;;1882401;75;21036;-46
2021/09/11 09:39:07;;;;;;;19.12;9.53;;;;;;;;;;1881572;76;21008;-47
2021/09/11 09:41:46;;;;;;;16.93;8.65;;;;;;;;;;1881839;75;21122;-49
2021/09/11 09:44:15;;;;;;;14.68;9.50;;;;;;;;;;1882327;76;21102;-48
2021/09/11 09:46:45;;;;;;;18.60;9.13;;;;;;;;;;1882187;76;21044;-49
2021/09/11 09:49:15;;;;;;;27.00;10.65;;;;;;;;;;1881497;76;21165;-47
2021/09/11 09:51:44;;;;;;;16.75;10.13;;;;;;;;;;1881890;75;21110;-48
2021/09/11 09:54:14;;;;;;;18.50;9.53;;;;;;;;;;1882202;76;21080;-47
2021/09/11 09:56:43;;;;;;;23.30;10.30;;;;;;;;;;1882331;76;21048;-50
2021/09/11 09:59:13;;;;;;;22.77;11.60;;;;;;;;;;1882252;75;21045;-48
2021/09/11 10:01:41;;;;;;;20.82;12.03;;;;;;;;;;1882226;75;21005;-50
2021/09/11 10:04:14;;;;;;;19.70;10.88;;;;;;;;;;1882310;76;21161;-48
2021/09/11 10:06:44;;;;;;;23.77;11.28;;;;;;;;;;1881593;76;21154;-48
2021/09/11 10:09:14;;;;;;;16.93;9.68;;;;;;;;;;1880914;76;21133;-48
2021/09/11 10:11:49;;;;;;;37.65;14.10;;;;;;;;;;1880554;76;21083;-48
2021/09/11 10:14:15;;;;;;;25.45;12.68;;;;;;;;;;1879923;76;21572;-48
2021/09/11 10:16:45;;;;;;;21.02;11.35;;;;;;;;;;1881050;76;21529;-50
2021/09/11 10:19:24;;;;;;;30.97;14.05;;;;;;;;;;1880924;76;21052;-47
2021/09/11 10:21:53;;;;;;;37.33;12.10;;;;;;;;;;1881266;76;21029;-47
2021/09/11 10:24:23;;;;;;;16.30;8.75;;;;;;;;;;1882217;76;21024;-49
2021/09/11 10:26:53;;;;;;;22.60;12.45;;;;;;;;;;1882179;76;21106;-49
2021/09/11 10:29:35;;;;;;;21.48;11.25;;;;;;;;;;1882264;76;21030;-50
2021/09/11 10:32:20;;;;;;;17.07;10.40;;;;;;;;;;1882328;76;21016;-49
2021/09/11 10:34:51;;;;;;;20.57;9.23;;;;;;;;;;1882198;76;21064;-49
2021/09/11 10:37:27;;;;;;;19.82;10.08;;;;;;;;;;1882258;76;21021;-47
2021/09/11 10:40:14;;;;;;;19.77;10.38;;;;;;;;;;1882184;75;21484;-47
2021/09/11 10:43:06;;;;;;;22.87;11.03;;;;;;;;;;1882236;75;21122;-50
2021/09/11 10:45:45;;;;;;;25.43;10.60;;;;;;;;;;1878328;76;21095;-48
2021/09/11 10:48:30;;;;;;;22.05;10.35;;;;;;;;;;1871934;76;21107;-49
2021/09/11 10:51:00;;;;;;;17.35;10.60;;;;;;;;;;1872853;76;21062;-47
2021/09/11 10:53:29;;;;;;;24.63;10.72;;;;;;;;;;1853566;77;21027;-49
2021/09/11 10:55:59;;;;;;;24.90;10.38;;;;;;;;;;1872676;77;21037;-49
2021/09/11 10:58:28;;;;;;;16.90;10.32;;;;;;;;;;1870726;76;20993;-47
2021/09/11 11:01:00;;;;;;;25.60;12.18;;;;;;;;;;1872776;77;21107;-47
2021/09/11 11:03:29;;;;;;;30.92;10.72;;;;;;;;;;1872901;77;21028;-50
2021/09/11 11:06:02;;;;;;;24.80;15.05;;;;;;;;;;1872805;77;21499;-50
2021/09/11 11:08:31;;;;;;;33.28;14.05;;;;;;;;;;1872861;77;21092;-47
2021/09/11 11:11:05;;;;;;;38.20;14.13;;;;;;;;;;1872762;76;21127;-47
2021/09/11 11:13:33;;;;;;;25.02;12.95;;;;;;;;;;1872727;76;21576;-49
2021/09/11 11:16:02;;;;;;;31.90;14.15;;;;;;;;;;1872771;77;21127;-47
2021/09/11 11:18:30;;;;;;;24.27;12.60;;;;;;;;;;1872777;76;21075;-47
2021/09/11 11:21:00;;;;;;;29.63;11.97;;;;;;;;;;1872699;77;21088;-49
2021/09/11 11:23:28;;;;;;;24.12;11.68;;;;;;;;;;1872769;77;21099;-48
2021/09/11 11:25:58;;;;;;;22.52;12.45;;;;;;;;;;1872756;76;21169;-49
2021/09/11 11:28:28;;;;;;;24.43;12.93;;;;;;;;;;1872665;77;21103;-47
2021/09/11 11:30:57;;;;;;;25.35;10.68;;;;;;;;;;1872776;77;21013;-47
2021/09/11 11:33:25;;;;;;;30.23;12.82;;;;;;;;;;1872687;76;21111;-48
2021/09/11 11:35:56;;;;;;;25.85;12.40;;;;;;;;;;1872677;76;21052;-47
2021/09/11 11:38:26;;;;;;;19.02;10.70;;;;;;;;;;1872171;75;21102;-46
2021/09/11 11:40:55;;;;;;;27.07;11.80;;;;;;;;;;1872775;77;21067;-46
2021/09/11 11:43:24;;;;;;;22.67;10.90;;;;;;;;;;1872158;76;21083;-48
2021/09/11 11:45:54;;;;;;;20.68;10.13;;;;;;;;;;1872823;75;21060;-47
2021/09/11 11:48:23;;;;;;;19.92;10.60;;;;;;;;;;1872988;77;21033;-47
2021/09/11 11:50:52;;;;;;;19.25;9.78;;;;;;;;;;1872998;77;21032;-50
2021/09/11 11:53:21;;;;;;;25.17;10.50;;;;;;;;;;1872913;76;21122;-50
2021/09/11 11:55:52;;;;;;;21.52;9.55;;;;;;;;;;1872868;77;21095;-47
2021/09/11 11:58:21;;;;;;;21.45;10.08;;;;;;;;;;1872771;77;21072;-50
2021/09/11 12:00:51;;;;;;;15.05;9.68;;;;;;;;;;1872822;77;21040;-50
2021/09/11 12:03:33;;;;;;;16.42;9.03;;;;;;;;;;1872631;77;21103;-47
2021/09/11 12:06:03;;;;;;;22.73;12.15;;;;;;;;;;1872681;75;21045;-49
2021/09/11 12:08:36;;;;;;;21.90;10.68;;;;;;;;;;1872611;77;21068;-47
2021/09/11 12:11:04;;;;;;;24.92;12.65;;;;;;;;;;1872731;76;21119;-48
2021/09/11 12:13:33;;;;;;;25.62;16.77;;;;;;;;;;1872700;77;21017;-47
2021/09/11 12:16:02;;;;;;;30.52;16.60;;;;;;;;;;1872841;76;21028;-47
2021/09/11 12:18:34;;;;;;;26.23;15.83;;;;;;;;;;1872746;76;21182;-46
2021/09/11 12:21:10;;;;;;;31.62;17.50;;;;;;;;;;1872827;76;21103;-48
2021/09/11 12:23:39;;;;;;;32.75;17.87;;;;;;;;;;1872895;77;21004;-48
2021/09/11 12:26:08;;;;;;;28.85;16.15;;;;;;;;;;1872808;76;21029;-46
2021/09/11 12:28:47;;;;;;;32.08;19.35;;;;;;;;;;1872841;77;21036;-47
2021/09/11 12:31:23;;;;;;;31.75;17.37;;;;;;;;;;1872959;76;21024;-46
2021/09/11 12:33:56;;;;;;;32.00;17.30;;;;;;;;;;1872906;77;21025;-49
2021/09/11 12:36:26;;;;;;;25.90;16.37;;;;;;;;;;1872812;77;21092;-47
2021/09/11 12:38:55;;;;;;;33.35;18.35;;;;;;;;;;1872893;76;21028;-49
2021/09/11 12:41:24;;;;;;;35.58;16.87;;;;;;;;;;1872982;77;21122;-48
2021/09/11 12:43:53;;;;;;;22.70;14.03;;;;;;;;;;1872925;77;21037;-47
2021/09/11 12:46:29;;;;;;;32.45;22.10;;;;;;;;;;1872820;76;21065;-48
2021/09/11 12:48:59;;;;;;;41.75;31.25;;;;;;;;;;1872761;76;21048;-49
2021/09/11 12:51:28;;;;;;;40.48;23.57;;;;;;;;;;1872808;76;21040;-49
2021/09/11 12:53:56;;;;;;;40.75;24.07;;;;;;;;;;1872762;77;21106;-48
2021/09/11 12:56:25;;;;;;;42.03;21.57;;;;;;;;;;1872903;77;21040;-49
2021/09/11 12:58:55;;;;;;;41.48;23.02;;;;;;;;;;1872753;77;21044;-49
2021/09/11 13:01:24;;;;;;;29.60;19.42;;;;;;;;;;1872728;76;21471;-48
2021/09/11 13:03:53;;;;;;;25.17;16.87;;;;;;;;;;1872852;76;21001;-46
2021/09/11 13:06:22;;;;;;;26.62;16.25;;;;;;;;;;1872843;76;21005;-47
2021/09/11 13:08:51;;;;;;;25.02;14.47;;;;;;;;;;1872725;77;21108;-50
2021/09/11 13:11:20;;;;;;;20.77;12.88;;;;;;;;;;1872821;77;21036;-47
2021/09/11 13:13:49;;;;;;;23.42;14.95;;;;;;;;;;1872819;77;21209;-47
2021/09/11 13:16:17;;;;;;;23.87;12.60;;;;;;;;;;1872849;76;21036;-49
2021/09/11 13:18:46;;;;;;;22.15;12.03;;;;;;;;;;1872786;77;21032;-49
2021/09/11 13:21:16;;;;;;;19.42;12.50;;;;;;;;;;1872820;76;21134;-48
2021/09/11 13:23:45;;;;;;;23.35;12.33;;;;;;;;;;1872781;77;21009;-47
2021/09/11 13:26:15;;;;;;;21.68;11.40;;;;;;;;;;1872976;77;21099;-46
2021/09/11 13:28:44;;;;;;;17.32;11.57;;;;;;;;;;1872797;76;21096;-46
2021/09/11 13:31:13;;;;;;;13.53;10.30;;;;;;;;;;1872826;76;21041;-46
2021/09/11 13:33:43;;;;;;;18.35;10.55;;;;;;;;;;1872767;77;21045;-48
2021/09/11 13:36:11;;;;;;;16.07;9.60;;;;;;;;;;1872881;77;21185;-49
2021/09/11 13:38:40;;;;;;;16.00;9.75;;;;;;;;;;1872790;76;21102;-47
2021/09/11 13:41:09;;;;;;;17.05;11.33;;;;;;;;;;1872721;77;21045;-48
2021/09/11 13:43:38;;;;;;;18.85;10.30;;;;;;;;;;1872776;77;21033;-49
2021/09/11 13:46:07;;;;;;;18.48;11.08;;;;;;;;;;1873660;75;21029;-47
2021/09/11 13:48:37;;;;;;;16.67;10.80;;;;;;;;;;1882363;76;21090;-47
2021/09/11 13:51:05;;;;;;;14.60;10.20;;;;;;;;;;1882234;75;21040;-48
2021/09/11 13:53:34;;;;;;;16.70;10.95;;;;;;;;;;1882199;75;21113;-47
2021/09/11 13:56:03;;;;;;;20.70;12.07;;;;;;;;;;1882260;76;21044;-49
2021/09/11 13:58:32;;;;;;;20.85;14.05;;;;;;;;;;1882323;76;21102;-50
2021/09/11 14:01:01;;;;;;;77.20;41.28;;;;;;;;;;1882240;75;21067;-49
2021/09/11 14:03:29;;;;;;;100.53;50.50;;;;;;;;;;1882205;76;21048;-48
2021/09/11 14:05:58;;;;;;;80.15;43.48;;;;;;;;;;1882257;76;21043;-49
2021/09/11 14:08:27;;;;;;;61.77;34.85;;;;;;;;;;1882276;76;21036;-46
2021/09/11 14:10:56;;;;;;;51.85;32.45;;;;;;;;;;1882352;76;21017;-50
2021/09/11 14:13:25;;;;;;;48.40;30.68;;;;;;;;;;1882334;76;21013;-49
2021/09/11 14:15:55;;;;;;;97.75;57.88;;;;;;;;;;1882472;76;21098;-48
2021/09/11 14:18:24;;;;;;;73.20;44.15;;;;;;;;;;1882314;76;21068;-47
2021/09/11 14:20:54;;;;;;;64.53;42.98;;;;;;;;;;1882127;76;21033;-47
2021/09/11 14:23:26;;;;;;;64.90;42.78;;;;;;;;;;1882360;76;21034;-47
2021/09/11 14:25:54;;;;;;;64.53;41.35;;;;;;;;;;1882241;75;21046;-50
2021/09/11 14:28:24;;;;;;;74.42;41.37;;;;;;;;;;1882224;75;21045;-50
2021/09/11 14:30:53;;;;;;;55.40;34.85;;;;;;;;;;1882314;76;21114;-49
2021/09/11 14:33:21;;;;;;;43.45;30.62;;;;;;;;;;1882230;76;21076;-47
2021/09/11 14:35:51;;;;;;;43.48;28.52;;;;;;;;;;1882326;76;21036;-47